CheckWX is a tool to help pilots better visualize weather data.  It is not intended as a substitute for an official pre-flight weather briefing.

07:40:48 UTC

KRDD TAF
Redding Municipal Airport
Redding, California, USA
KRDD 200520Z 2006/2106 36005KT P6SM SKC FM201700 36011G17KT P6SM SKC FM210100 35009KT P6SM SKC

Jun-20@
06:00 UTC

Jun-20 @ 06:00 UTC

Jun-20@
17:00 UTC

Jun-20 @ 17:00 UTC

KRDD 200520Z 2006/2106 36005KT P6SM SKC
Wind
  • 360° at 5 KTS
Cloud Levels
  • Clear skies

Jun-20@
17:00 UTC

Jun-20 @ 17:00 UTC

Jun-21@
01:00 UTC

Jun-21 @ 01:00 UTC

FM201700 36011G17KT P6SM SKC

From

From Standard forecast or significant change

Wind
  • 360° at 11 KTS
  • {Gusting to 17 KTS
Cloud Levels
  • Clear skies

Jun-21@
01:00 UTC

Jun-21 @ 01:00 UTC

Jun-21@
06:00 UTC

Jun-21 @ 06:00 UTC

FM210100 35009KT P6SM SKC

From

From Standard forecast or significant change

Wind
  • 350° at 9 KTS
Cloud Levels
  • Clear skies